Flight Track Log - Related Links

Times and Time Zones

All times are in EDT time to prevent confusion due to time zone crossing. See the TAM3400 flight status page for this flight to view local times or setup timezone preferences in your user account.

Time Position Orientation Groundspeed Altitude Reporting Facility
EDT Latitude Longitude Course Direction KTS MPH feet Rate Location/Type
09:01AM -15.8670 -47.9240 208° Southwest  Level FlightAware
09:26AM -15.6524 -47.9316 358° North  Level Estimated
09:27AM -15.5409 -47.9360 358° North  Level Estimated
09:28AM -15.4294 -47.9405 358° North  Level Estimated
09:29AM -15.3180 -47.9449 358° North  Level Estimated
09:34AM -15.6809 -47.9229 358° North  Level Estimated
09:35AM -15.5695 -47.9274 358° North  Level Estimated
09:36AM -15.4580 -47.9320 358° North  Level Estimated
09:37AM -15.3466 -47.9365 358° North  Level Estimated
09:38AM -15.2351 -47.9410 358° North  Level Estimated
09:39AM -15.1236 -47.9455 358° North  Level Estimated
09:40AM -15.0122 -47.9500 358° North  Level Estimated
09:41AM -14.9007 -47.9545 358° North  Level Estimated
09:42AM -14.7819 -47.9593 358° North  Level Estimated
09:43AM -14.6705 -47.9637 358° North  Level Estimated
09:44AM -14.5590 -47.9682 358° North  Level Estimated
09:45AM -14.4476 -47.9727 358° North  Level Estimated
09:46AM -14.3361 -47.9772 358° North  Level Estimated
09:47AM -14.2247 -47.9816 358° North  Level Estimated
09:48AM -14.1132 -47.9861 358° North  Level Estimated
09:49AM -14.0017 -47.9906 358° North  Level Estimated
09:50AM -13.8903 -47.9950 358° North  Level Estimated
09:51AM -13.7788 -47.9995 358° North  Level Estimated
09:52AM -13.6673 -48.0039 358° North  Level Estimated
09:53AM -13.5559 -48.0083 358° North  Level Estimated
09:54AM -13.4444 -48.0128 358° North  Level Estimated
09:55AM -13.3330 -48.0172 358° North  Level Estimated
09:56AM -13.2215 -48.0216 358° North  Level Estimated
09:56AM -15.8770 -47.8900 84° East 169 194 4,500  Level FlightAware
09:56AM -15.8760 -47.8770 85° East 166 191 5,100 1,756 Climbing FlightAware
09:56AM -15.8740 -47.8610 83° East 172 198 5,700 1,467 Climbing FlightAware
09:57AM -15.8710 -47.8360 83° East 201 231 6,200 1,167 Climbing FlightAware
09:57AM -15.8700 -47.8230 85° East 218 251 6,400 474 Climbing FlightAware
09:57AM -15.8680 -47.8050 83° East 246 283 6,500 2,250 Climbing FlightAware
09:58AM -15.8620 -47.7680 80° East 240 276 8,200 4,154 Climbing FlightAware
09:58AM -15.8610 -47.7640 75° East 244 281 8,300 2,250 Climbing FlightAware
09:58AM -15.8530 -47.7510 57° Northeast 253 291 8,800 2,400 Climbing FlightAware
09:58AM -15.8460 -47.7460 34° Northeast 256 295 9,100 1,500 Climbing FlightAware
09:58AM -15.8330 -47.7410 20° North 273 314 9,300 1,125 Climbing FlightAware
09:58AM -15.8280 -47.7410 360° North 278 320 9,400 1,250 Climbing FlightAware
09:59AM -15.8010 -47.7420 358° North 299 344 9,800 1,347 Climbing FlightAware
09:59AM -15.7620 -47.7480 352° North 323 372 10,500 1,313 Climbing FlightAware
10:00AM -15.7010 -47.7570 352° North 363 418 11,200 1,823 Climbing FlightAware
10:01AM -15.6280 -47.7650 354° North 371 427 12,900 2,341 Climbing FlightAware
10:01AM -15.5610 -47.7730 353° North 376 433 14,400 1,917 Climbing FlightAware
10:02AM -15.5030 -47.7790 354° North 393 452 15,200 1,258 Climbing FlightAware
10:02AM -15.4710 -47.7830 353° North 397 457 15,700 1,147 Climbing FlightAware
10:03AM -15.4070 -47.7900 354° North 413 475 16,500 2,338 Climbing FlightAware
10:04AM -15.3130 -47.8010 354° North 399 459 18,700 2,028 Climbing FlightAware
10:04AM -15.2620 -47.8070 354° North 399 459 18,900 174 Climbing FlightAware
10:05AM -15.2070 -47.8140 353° North 399 459 18,900 2,029 Level FlightAware
10:05AM -15.1370 -47.8200 355° North 415 478 21,200 2,026 Climbing FlightAware
10:06AM -15.0660 -47.8290 353° North 418 481 21,500 222 Climbing FlightAware
10:07AM -15.0050 -47.8370 353° North 418 481 21,500  Level FlightAware
10:07AM -14.9370 -47.8450 354° North 418 481 21,500  Level FlightAware
10:08AM -14.8860 -47.8520 352° North 418 481 21,500  Level FlightAware
10:09AM -14.8160 -47.8610 353° North 418 481 21,500 2,019 Level FlightAware
10:10AM -14.7480 -47.8650 357° North 433 498 25,100 2,160 Climbing FlightAware
10:10AM -14.6880 -47.8730 353° North 433 498 25,100  Level FlightAware
10:11AM -14.6230 -47.8810 353° North 433 498 25,100  Level FlightAware
10:11AM -14.5630 -47.8890 353° North 433 498 25,100  Level FlightAware
10:12AM -14.5030 -47.8960 354° North 433 498 25,100  Level FlightAware
10:13AM -14.4310 -47.9050 353° North 433 498 25,100 360 Level FlightAware
10:15AM -14.2323 -47.9141 357° North  Level Estimated
10:16AM -14.1208 -47.9191 357° North  Level Estimated
10:17AM -14.0094 -47.9242 357° North  Level Estimated
10:18AM -13.9059 -47.9289 357° North  Level Estimated
10:19AM -13.8024 -47.9336 357° North  Level Estimated
10:20AM -13.6989 -47.9383 357° North  Level Estimated
10:21AM -13.5955 -47.9429 357° North  Level Estimated
10:22AM -13.4920 -47.9476 357° North  Level Estimated
10:23AM -13.3885 -47.9523 357° North  Level Estimated
10:24AM -13.2850 -47.9570 357° North  Level Estimated
10:25AM -13.1816 -47.9616 357° North  Level Estimated
10:26AM -13.0781 -47.9663 357° North  Level Estimated
10:27AM -12.9746 -47.9710 357° North  Level Estimated
10:28AM -12.8711 -47.9756 357° North  Level Estimated
10:29AM -12.7676 -47.9803 357° North  Level Estimated
10:30AM -12.6642 -47.9849 357° North  Level Estimated
10:31AM -12.5607 -47.9896 357° North  Level Estimated
10:32AM -12.4572 -47.9942 357° North  Level Estimated
10:33AM -12.3537 -47.9989 357° North  Level Estimated
10:34AM -12.2502 -48.0035 357° North  Level Estimated
10:35AM -12.1468 -48.0081 357° North  Level Estimated
10:36AM -12.0433 -48.0127 357° North  Level Estimated
10:37AM -11.9398 -48.0174 357° North  Level Estimated
10:38AM -11.8363 -48.0220 357° North  Level Estimated
10:39AM -11.7328 -48.0266 357° North  Level Estimated
10:40AM -11.6293 -48.0312 358° North  Level Estimated
10:41AM -11.5259 -48.0358 358° North  Level Estimated
10:42AM -11.4224 -48.0404 358° North  Level Estimated
10:42AM -10.6160 -48.3230 358° North 440 506 36,000  Level FlightAware
10:43AM -10.5340 -48.3320 354° North 439 505 36,000  Level FlightAware
10:44AM -10.4810 -48.3390 353° North 439 505 36,000  Level FlightAware
10:44AM -10.5780 -48.3270 173° South 439 505 36,000  Level FlightAware
10:45AM -10.5010 -48.3370 353° North 439 505 36,000  Level FlightAware
10:46AM -10.5170 -48.3350 173° South 438 504 36,000  Level FlightAware
10:46AM -10.4450 -48.3440 353° North 438 504 36,000  Level FlightAware
10:47AM -10.5780 -48.3270 173° South 440 506 36,000  Level FlightAware
10:48AM -10.5130 -48.3280 359° North 440 506 36,000  Level FlightAware
10:48AM -9.8940 -48.3640 357° North 440 506 36,000  Level FlightAware
10:49AM -9.8110 -48.3650 359° North 440 506 36,000  Level FlightAware
10:50AM -9.7410 -48.3660 359° North 441 507 36,000  Level FlightAware
10:50AM -9.6500 -48.3680 359° North 441 507 36,000  Level FlightAware
10:51AM -9.5500 -48.3690 359° North 441 507 36,000  Level FlightAware
10:52AM -9.5030 -48.3700 359° North 441 507 36,000  Level FlightAware
10:53AM -9.4410 -48.3710 359° North 441 507 36,000  Level FlightAware
10:53AM -9.3700 -48.3720 359° North 441 507 36,000  Level FlightAware
10:54AM -9.3130 -48.3730 359° North 441 507 36,000  Level FlightAware
10:54AM -9.2470 -48.3740 359° North 441 507 36,000  Level FlightAware
10:55AM -9.1700 -48.3760 359° North 441 507 36,000  Level FlightAware
10:56AM -9.0920 -48.3770 359° North 441 507 36,000  Level FlightAware
10:57AM -9.0230 -48.3780 359° North 441 507 36,000  Level FlightAware
10:57AM -8.9570 -48.3800 358° North 441 507 36,000  Level FlightAware
10:58AM -8.8980 -48.3810 359° North 441 507 36,000  Level FlightAware
10:58AM -8.8340 -48.3820 359° North 441 507 36,000  Level FlightAware
10:59AM -8.7660 -48.3830 359° North 441 507 36,000  Level FlightAware
11:00AM -8.7060 -48.3840 359° North 441 507 36,000  Level FlightAware
11:00AM -8.6420 -48.3850 359° North 441 507 36,000  Level FlightAware
11:01AM -8.5760 -48.3860 359° North 441 507 36,000 51 Level FlightAware
11:04AM -8.2739 -48.3898 359° North  Level Estimated
11:05AM -8.1570 -48.3913 359° North  Level Estimated
11:06AM -8.0401 -48.3928 359° North  Level Estimated
11:07AM -7.9231 -48.3943 359° North  Level Estimated
11:08AM -7.8062 -48.3958 359° North  Level Estimated
11:09AM -7.6893 -48.3972 359° North  Level Estimated
11:10AM -7.5723 -48.3987 359° North  Level Estimated
11:11AM -7.4554 -48.4002 359° North  Level Estimated
11:12AM -7.3385 -48.4017 359° North  Level Estimated
11:13AM -7.2215 -48.4032 359° North  Level Estimated
11:14AM -7.1046 -48.4046 359° North  Level Estimated
11:15AM -6.9877 -48.4061 359° North  Level Estimated
11:16AM -6.8708 -48.4076 359° North  Level Estimated
11:17AM -6.7538 -48.4091 359° North  Level Estimated
11:18AM -6.6369 -48.4105 359° North  Level Estimated
11:19AM -6.5200 -48.4120 359° North  Level Estimated
11:20AM -6.4030 -48.4135 359° North  Level Estimated
11:21AM -6.2861 -48.4150 359° North  Level Estimated
11:22AM -6.1692 -48.4164 359° North  Level Estimated
11:23AM -6.0522 -48.4179 359° North  Level Estimated
11:24AM -5.9353 -48.4194 359° North  Level Estimated
11:25AM -5.8184 -48.4208 359° North  Level Estimated
11:26AM -5.7015 -48.4223 359° North  Level Estimated
11:27AM -5.5845 -48.4238 359° North  Level Estimated
11:28AM -5.4676 -48.4252 359° North  Level Estimated
11:29AM -5.3507 -48.4267 359° North  Level Estimated
11:30AM -5.2337 -48.4282 359° North  Level Estimated
11:31AM -5.1168 -48.4296 359° North  Level Estimated
11:32AM -4.9999 -48.4311 359° North  Level Estimated
11:33AM -4.8829 -48.4326 359° North  Level Estimated
11:34AM -4.7660 -48.4340 359° North  Level Estimated
11:35AM -4.6491 -48.4355 359° North  Level Estimated
11:36AM -4.5322 -48.4370 359° North  Level Estimated
11:37AM -4.4152 -48.4384 359° North  Level Estimated
11:38AM -4.2983 -48.4399 359° North  Level Estimated
11:39AM -4.1814 -48.4413 359° North  Level Estimated
11:39AM -3.6960 -48.4480 359° North 442 509 38,000  Level FlightAware
11:40AM -4.0644 -48.4428 359° North  Level Estimated
11:40AM -3.6170 -48.4490 359° North 442 509 38,000  Level FlightAware
11:41AM -3.5130 -48.4500 359° North 440 506 38,000  Level FlightAware
11:41AM -3.4170 -48.4520 359° North 441 507 38,000  Level FlightAware
11:42AM -3.3560 -48.4520 360° North 440 506 38,000 -831 Level FlightAware
11:43AM -3.3050 -48.4530 359° North 447 514 37,100 -1,295 Descending FlightAware
11:43AM -3.1980 -48.4550 359° North 440 506 36,100 -2,745 Descending FlightAware
11:44AM -3.0970 -48.4560 359° North 443 510 32,800 -4,629 Descending FlightAware
11:45AM -3.0320 -48.4570 359° North 458 527 30,700 -3,549 Descending FlightAware
11:45AM -2.9560 -48.4580 359° North 463 533 28,600 -3,293 Descending FlightAware
11:46AM -2.8640 -48.4600 359° North 458 527 26,200 -1,902 Descending FlightAware
11:47AM -2.8050 -48.4610 359° North 457 526 26,000 -154 Descending FlightAware
11:47AM -2.7400 -48.4620 359° North 457 526 26,000  Level FlightAware
11:48AM -2.6750 -48.4630 359° North 457 526 26,000  Level FlightAware
11:49AM -2.6090 -48.4640 359° North 457 526 26,000  Level FlightAware
11:49AM -2.5530 -48.4650 359° North 457 526 26,000  Level FlightAware
11:50AM -2.4900 -48.4660 359° North 457 526 26,000  Level FlightAware
11:50AM -2.4350 -48.4670 359° North 457 526 26,000 -7,148 Level FlightAware
11:52AM -2.1950 -48.4680 360° North 391 450 12,300 -7,579 Descending FlightAware
11:52AM -2.1610 -48.4680 360° North 382 440 11,600 -1,200 Descending FlightAware
11:53AM -2.0810 -48.4700 359° North 354 407 10,900 -947 Descending FlightAware
11:53AM -2.0240 -48.4700 360° North 308 354 10,400 -375 Descending FlightAware
11:54AM -1.9710 -48.4710 359° North 308 354 10,400  Level FlightAware
11:55AM -1.9260 -48.4720 359° North 308 354 10,400 -3,556 Level FlightAware
11:55AM -1.8940 -48.5010 318° Northwest 282 325 7,200 -6,706 Descending FlightAware
11:55AM -1.8720 -48.5070 345° North 281 323 6,600 -1,579 Descending FlightAware
11:56AM -1.8560 -48.5110 346° North 276 318 6,200 -1,600 Descending FlightAware
11:56AM -1.8220 -48.5200 345° North 267 307 5,400 -2,087 Descending FlightAware
11:56AM -1.7980 -48.5230 353° North 260 299 4,600 -2,229 Descending FlightAware
11:57AM -1.7850 -48.5250 351° North 259 298 4,100 -769 Descending FlightAware
11:57AM -1.7580 -48.5290 352° North 259 298 4,100 -1,889 Level FlightAware
11:57AM -1.7140 -48.5440 341° North 247 284 2,400 -2,069 Descending FlightAware
11:58AM -1.6840 -48.5520 345° North 244 281 2,100 -353 Descending FlightAware
11:58AM -1.6600 -48.5590 344° North 247 284 2,100  Level FlightAware
11:59AM -1.6380 -48.5660 342° North 237 273 2,100  Level FlightAware
11:59AM -1.6160 -48.5720 345° North 223 257 2,100  Level FlightAware
12:00PM -1.5880 -48.5800 344° North 222 255 2,100  Level FlightAware
12:00PM -1.5610 -48.5880 344° North 219 252 2,100  Level FlightAware
12:00PM -1.5500 -48.5910 345° North 217 250 2,100  Level FlightAware
12:00PM -1.5300 -48.5970 343° North 217 250 2,100  Level FlightAware
12:01PM -1.5160 -48.6000 348° North 216 249 2,100  Level FlightAware
12:01PM -1.4990 -48.5940 19° North 193 222 2,100  Level FlightAware
12:02PM -1.4790 -48.5770 40° Northeast 189 217 2,100  Level FlightAware
12:02PM -1.4630 -48.5610 45° Northeast 190 219 2,100  Level FlightAware
12:05PM -1.3793 -48.4763 45° Northeast  Level Estimated
12:06PM -1.3793 -48.4763 270° West  Level Estimated

Login

Don't have an account? Register now (free) for customized features, flight alerts, and more!